sensor_id;sensor_type;location;lat;lon;timestamp;P1;durP1;ratioP1;P2;durP2;ratioP2
55254;SDS011;41118;44.634;11.182;2024-01-07T00:01:50;2.85;;;0.60;;
55254;SDS011;41118;44.634;11.182;2024-01-07T00:04:16;4.25;;;0.70;;
55254;SDS011;41118;44.634;11.182;2024-01-07T00:06:42;1.77;;;0.50;;
55254;SDS011;41118;44.634;11.182;2024-01-07T00:09:08;1.88;;;0.32;;
55254;SDS011;41118;44.634;11.182;2024-01-07T00:11:34;3.28;;;0.60;;
55254;SDS011;41118;44.634;11.182;2024-01-07T00:14:00;3.78;;;0.82;;
55254;SDS011;41118;44.634;11.182;2024-01-07T00:16:27;11.52;;;1.73;;
55254;SDS011;41118;44.634;11.182;2024-01-07T00:18:53;7.80;;;1.48;;
55254;SDS011;41118;44.634;11.182;2024-01-07T00:21:20;4.53;;;0.95;;
55254;SDS011;41118;44.634;11.182;2024-01-07T00:23:46;9.40;;;1.48;;
55254;SDS011;41118;44.634;11.182;2024-01-07T00:26:12;7.35;;;1.58;;
55254;SDS011;41118;44.634;11.182;2024-01-07T00:28:38;3.63;;;0.95;;
55254;SDS011;41118;44.634;11.182;2024-01-07T00:31:04;9.80;;;2.03;;
55254;SDS011;41118;44.634;11.182;2024-01-07T00:33:34;8.77;;;1.77;;
55254;SDS011;41118;44.634;11.182;2024-01-07T00:36:01;4.13;;;0.77;;
55254;SDS011;41118;44.634;11.182;2024-01-07T00:38:27;2.05;;;0.40;;
55254;SDS011;41118;44.634;11.182;2024-01-07T00:40:54;1.55;;;0.40;;
55254;SDS011;41118;44.634;11.182;2024-01-07T00:43:20;1.92;;;0.40;;
55254;SDS011;41118;44.634;11.182;2024-01-07T00:45:46;3.88;;;0.47;;
55254;SDS011;41118;44.634;11.182;2024-01-07T00:48:13;1.95;;;0.52;;
55254;SDS011;41118;44.634;11.182;2024-01-07T00:50:40;3.85;;;0.70;;
55254;SDS011;41118;44.634;11.182;2024-01-07T00:53:06;4.82;;;0.38;;
55254;SDS011;41118;44.634;11.182;2024-01-07T00:55:32;2.83;;;0.50;;
55254;SDS011;41118;44.634;11.182;2024-01-07T00:58:00;2.47;;;0.77;;
55254;SDS011;41118;44.634;11.182;2024-01-07T01:00:26;4.40;;;0.80;;
55254;SDS011;41118;44.634;11.182;2024-01-07T01:02:53;3.63;;;0.60;;
55254;SDS011;41118;44.634;11.182;2024-01-07T01:05:19;1.10;;;0.35;;
55254;SDS011;41118;44.634;11.182;2024-01-07T01:07:46;2.38;;;0.50;;
55254;SDS011;41118;44.634;11.182;2024-01-07T01:10:12;1.77;;;0.40;;
55254;SDS011;41118;44.634;11.182;2024-01-07T01:12:41;1.70;;;0.38;;
55254;SDS011;41118;44.634;11.182;2024-01-07T01:15:08;1.13;;;0.35;;
55254;SDS011;41118;44.634;11.182;2024-01-07T01:17:34;2.95;;;0.30;;
55254;SDS011;41118;44.634;11.182;2024-01-07T01:20:00;1.20;;;0.30;;
55254;SDS011;41118;44.634;11.182;2024-01-07T01:22:26;3.03;;;0.40;;
55254;SDS011;41118;44.634;11.182;2024-01-07T01:24:53;1.30;;;0.30;;
55254;SDS011;41118;44.634;11.182;2024-01-07T01:27:21;3.22;;;0.35;;
55254;SDS011;41118;44.634;11.182;2024-01-07T01:29:47;2.05;;;0.35;;
55254;SDS011;41118;44.634;11.182;2024-01-07T01:32:13;3.00;;;0.30;;
55254;SDS011;41118;44.634;11.182;2024-01-07T01:34:39;2.45;;;0.30;;
55254;SDS011;41118;44.634;11.182;2024-01-07T01:37:07;1.73;;;0.30;;
55254;SDS011;41118;44.634;11.182;2024-01-07T01:39:34;2.80;;;0.38;;
55254;SDS011;41118;44.634;11.182;2024-01-07T01:42:00;2.45;;;0.30;;
55254;SDS011;41118;44.634;11.182;2024-01-07T01:44:26;1.17;;;0.30;;
55254;SDS011;41118;44.634;11.182;2024-01-07T01:46:56;1.67;;;0.30;;
55254;SDS011;41118;44.634;11.182;2024-01-07T01:49:22;1.13;;;0.30;;
55254;SDS011;41118;44.634;11.182;2024-01-07T01:51:50;5.93;;;0.60;;
55254;SDS011;41118;44.634;11.182;2024-01-07T01:54:18;1.48;;;0.43;;
55254;SDS011;41118;44.634;11.182;2024-01-07T01:56:45;2.15;;;0.50;;
55254;SDS011;41118;44.634;11.182;2024-01-07T01:59:11;1.60;;;0.30;;
55254;SDS011;41118;44.634;11.182;2024-01-07T02:01:38;2.08;;;0.30;;
55254;SDS011;41118;44.634;11.182;2024-01-07T02:04:04;7.15;;;0.63;;
55254;SDS011;41118;44.634;11.182;2024-01-07T02:06:30;1.80;;;0.30;;
55254;SDS011;41118;44.634;11.182;2024-01-07T02:08:57;1.52;;;0.40;;
55254;SDS011;41118;44.634;11.182;2024-01-07T02:11:23;2.85;;;0.60;;
55254;SDS011;41118;44.634;11.182;2024-01-07T02:13:49;2.53;;;0.40;;
55254;SDS011;41118;44.634;11.182;2024-01-07T02:16:15;2.15;;;0.40;;
55254;SDS011;41118;44.634;11.182;2024-01-07T02:18:43;1.50;;;0.40;;
55254;SDS011;41118;44.634;11.182;2024-01-07T02:21:10;2.40;;;0.30;;
55254;SDS011;41118;44.634;11.182;2024-01-07T02:23:36;1.23;;;0.20;;
55254;SDS011;41118;44.634;11.182;2024-01-07T02:26:03;2.22;;;0.38;;
55254;SDS011;41118;44.634;11.182;2024-01-07T02:28:29;1.73;;;0.30;;
55254;SDS011;41118;44.634;11.182;2024-01-07T02:30:56;2.03;;;0.32;;
55254;SDS011;41118;44.634;11.182;2024-01-07T02:33:22;2.40;;;0.40;;
55254;SDS011;41118;44.634;11.182;2024-01-07T02:35:49;1.20;;;0.30;;
55254;SDS011;41118;44.634;11.182;2024-01-07T02:38:15;1.45;;;0.30;;
55254;SDS011;41118;44.634;11.182;2024-01-07T02:40:41;1.45;;;0.30;;
55254;SDS011;41118;44.634;11.182;2024-01-07T02:43:07;1.77;;;0.40;;
55254;SDS011;41118;44.634;11.182;2024-01-07T02:45:33;2.60;;;0.60;;
55254;SDS011;41118;44.634;11.182;2024-01-07T02:47:59;2.63;;;0.45;;
55254;SDS011;41118;44.634;11.182;2024-01-07T02:50:25;1.98;;;0.40;;
55254;SDS011;41118;44.634;11.182;2024-01-07T02:52:52;1.98;;;0.30;;
55254;SDS011;41118;44.634;11.182;2024-01-07T02:55:18;2.92;;;0.40;;
55254;SDS011;41118;44.634;11.182;2024-01-07T02:57:44;2.92;;;0.60;;
55254;SDS011;41118;44.634;11.182;2024-01-07T03:00:10;2.03;;;0.40;;
55254;SDS011;41118;44.634;11.182;2024-01-07T03:02:36;4.60;;;0.40;;
55254;SDS011;41118;44.634;11.182;2024-01-07T03:05:03;1.88;;;0.40;;
55254;SDS011;41118;44.634;11.182;2024-01-07T03:07:29;1.48;;;0.32;;
55254;SDS011;41118;44.634;11.182;2024-01-07T03:09:55;1.45;;;0.45;;
55254;SDS011;41118;44.634;11.182;2024-01-07T03:12:21;2.03;;;0.30;;
55254;SDS011;41118;44.634;11.182;2024-01-07T03:14:48;3.13;;;0.50;;
55254;SDS011;41118;44.634;11.182;2024-01-07T03:17:14;2.88;;;0.38;;
55254;SDS011;41118;44.634;11.182;2024-01-07T03:19:42;2.13;;;0.65;;
55254;SDS011;41118;44.634;11.182;2024-01-07T03:22:08;2.83;;;0.65;;
55254;SDS011;41118;44.634;11.182;2024-01-07T03:24:34;2.00;;;0.38;;
55254;SDS011;41118;44.634;11.182;2024-01-07T03:27:01;2.53;;;0.40;;
55254;SDS011;41118;44.634;11.182;2024-01-07T03:29:27;5.47;;;0.50;;
55254;SDS011;41118;44.634;11.182;2024-01-07T03:31:53;1.65;;;0.35;;
55254;SDS011;41118;44.634;11.182;2024-01-07T03:34:19;1.90;;;0.35;;
55254;SDS011;41118;44.634;11.182;2024-01-07T03:36:45;2.42;;;0.22;;
55254;SDS011;41118;44.634;11.182;2024-01-07T03:39:11;3.85;;;0.68;;
55254;SDS011;41118;44.634;11.182;2024-01-07T03:41:38;3.55;;;0.82;;
55254;SDS011;41118;44.634;11.182;2024-01-07T03:44:04;2.45;;;0.40;;
55254;SDS011;41118;44.634;11.182;2024-01-07T03:46:30;1.58;;;0.73;;
55254;SDS011;41118;44.634;11.182;2024-01-07T03:48:57;2.53;;;0.30;;
55254;SDS011;41118;44.634;11.182;2024-01-07T03:51:23;3.20;;;0.40;;
55254;SDS011;41118;44.634;11.182;2024-01-07T03:53:49;2.40;;;0.40;;
55254;SDS011;41118;44.634;11.182;2024-01-07T03:56:16;1.85;;;0.45;;
55254;SDS011;41118;44.634;11.182;2024-01-07T03:58:42;3.15;;;0.50;;
55254;SDS011;41118;44.634;11.182;2024-01-07T04:01:09;1.20;;;0.22;;
55254;SDS011;41118;44.634;11.182;2024-01-07T04:03:37;4.15;;;0.30;;
55254;SDS011;41118;44.634;11.182;2024-01-07T04:06:06;1.52;;;0.30;;
55254;SDS011;41118;44.634;11.182;2024-01-07T04:08:32;2.67;;;0.90;;
55254;SDS011;41118;44.634;11.182;2024-01-07T04:11:01;1.40;;;0.25;;
55254;SDS011;41118;44.634;11.182;2024-01-07T04:13:28;0.93;;;0.20;;
55254;SDS011;41118;44.634;11.182;2024-01-07T04:15:54;1.45;;;0.20;;
55254;SDS011;41118;44.634;11.182;2024-01-07T04:18:20;1.73;;;0.20;;
55254;SDS011;41118;44.634;11.182;2024-01-07T04:20:46;2.08;;;0.38;;
55254;SDS011;41118;44.634;11.182;2024-01-07T04:23:12;1.95;;;0.40;;
55254;SDS011;41118;44.634;11.182;2024-01-07T04:25:38;0.90;;;0.30;;
55254;SDS011;41118;44.634;11.182;2024-01-07T04:28:07;0.80;;;0.22;;
55254;SDS011;41118;44.634;11.182;2024-01-07T04:30:34;1.00;;;0.20;;
55254;SDS011;41118;44.634;11.182;2024-01-07T04:33:00;2.85;;;0.32;;
55254;SDS011;41118;44.634;11.182;2024-01-07T04:35:27;1.95;;;0.30;;
55254;SDS011;41118;44.634;11.182;2024-01-07T04:37:53;1.25;;;0.30;;
55254;SDS011;41118;44.634;11.182;2024-01-07T04:40:19;1.27;;;0.30;;
55254;SDS011;41118;44.634;11.182;2024-01-07T04:42:46;0.88;;;0.20;;
55254;SDS011;41118;44.634;11.182;2024-01-07T04:45:12;1.10;;;0.20;;
55254;SDS011;41118;44.634;11.182;2024-01-07T04:47:38;1.92;;;0.30;;
55254;SDS011;41118;44.634;11.182;2024-01-07T04:50:04;1.90;;;0.20;;
55254;SDS011;41118;44.634;11.182;2024-01-07T04:52:30;1.10;;;0.20;;
55254;SDS011;41118;44.634;11.182;2024-01-07T04:54:56;1.30;;;0.30;;
55254;SDS011;41118;44.634;11.182;2024-01-07T04:57:22;1.25;;;0.30;;
55254;SDS011;41118;44.634;11.182;2024-01-07T04:59:49;1.25;;;0.20;;
55254;SDS011;41118;44.634;11.182;2024-01-07T05:02:15;0.80;;;0.30;;
55254;SDS011;41118;44.634;11.182;2024-01-07T05:04:42;2.30;;;0.30;;
55254;SDS011;41118;44.634;11.182;2024-01-07T05:07:08;0.70;;;0.20;;
55254;SDS011;41118;44.634;11.182;2024-01-07T05:09:34;1.27;;;0.15;;
55254;SDS011;41118;44.634;11.182;2024-01-07T05:12:00;0.50;;;0.05;;
55254;SDS011;41118;44.634;11.182;2024-01-07T05:14:26;1.20;;;0.20;;
55254;SDS011;41118;44.634;11.182;2024-01-07T05:16:53;0.80;;;0.10;;
55254;SDS011;41118;44.634;11.182;2024-01-07T05:19:22;0.60;;;0.10;;
55254;SDS011;41118;44.634;11.182;2024-01-07T05:21:48;0.77;;;0.10;;
55254;SDS011;41118;44.634;11.182;2024-01-07T05:24:14;0.50;;;0.10;;
55254;SDS011;41118;44.634;11.182;2024-01-07T05:26:41;0.45;;;0.10;;
55254;SDS011;41118;44.634;11.182;2024-01-07T05:29:08;0.50;;;0.17;;
55254;SDS011;41118;44.634;11.182;2024-01-07T05:31:34;0.73;;;0.10;;
55254;SDS011;41118;44.634;11.182;2024-01-07T05:34:00;0.70;;;0.10;;
55254;SDS011;41118;44.634;11.182;2024-01-07T05:36:26;0.75;;;0.10;;
55254;SDS011;41118;44.634;11.182;2024-01-07T05:38:52;0.50;;;0.10;;
55254;SDS011;41118;44.634;11.182;2024-01-07T05:41:19;0.35;;;0.00;;
55254;SDS011;41118;44.634;11.182;2024-01-07T05:43:45;0.50;;;0.10;;
55254;SDS011;41118;44.634;11.182;2024-01-07T05:46:12;0.20;;;0.00;;
55254;SDS011;41118;44.634;11.182;2024-01-07T05:48:45;0.35;;;0.00;;
55254;SDS011;41118;44.634;11.182;2024-01-07T05:51:11;0.63;;;0.00;;
55254;SDS011;41118;44.634;11.182;2024-01-07T05:53:38;0.17;;;0.00;;
55254;SDS011;41118;44.634;11.182;2024-01-07T05:56:05;0.45;;;0.00;;
55254;SDS011;41118;44.634;11.182;2024-01-07T05:58:31;0.30;;;0.03;;
55254;SDS011;41118;44.634;11.182;2024-01-07T06:00:57;1.08;;;0.00;;
55254;SDS011;41118;44.634;11.182;2024-01-07T06:03:23;0.10;;;0.00;;
55254;SDS011;41118;44.634;11.182;2024-01-07T06:05:49;0.10;;;0.00;;
55254;SDS011;41118;44.634;11.182;2024-01-07T06:08:15;0.35;;;0.00;;
55254;SDS011;41118;44.634;11.182;2024-01-07T06:10:41;0.30;;;0.00;;
55254;SDS011;41118;44.634;11.182;2024-01-07T06:13:07;0.30;;;0.08;;
55254;SDS011;41118;44.634;11.182;2024-01-07T06:15:33;0.20;;;0.00;;
55254;SDS011;41118;44.634;11.182;2024-01-07T06:17:59;0.20;;;0.00;;
55254;SDS011;41118;44.634;11.182;2024-01-07T06:20:25;0.65;;;0.05;;
55254;SDS011;41118;44.634;11.182;2024-01-07T06:22:51;0.70;;;0.00;;
55254;SDS011;41118;44.634;11.182;2024-01-07T06:25:17;0.60;;;0.10;;
55254;SDS011;41118;44.634;11.182;2024-01-07T06:27:44;0.13;;;0.00;;
55254;SDS011;41118;44.634;11.182;2024-01-07T06:30:10;0.25;;;0.00;;
55254;SDS011;41118;44.634;11.182;2024-01-07T06:32:36;0.10;;;0.00;;
55254;SDS011;41118;44.634;11.182;2024-01-07T06:35:02;0.10;;;0.00;;
55254;SDS011;41118;44.634;11.182;2024-01-07T06:37:29;0.05;;;0.00;;
55254;SDS011;41118;44.634;11.182;2024-01-07T06:39:56;0.20;;;0.00;;
55254;SDS011;41118;44.634;11.182;2024-01-07T06:42:23;0.00;;;0.00;;
55254;SDS011;41118;44.634;11.182;2024-01-07T06:44:49;0.20;;;0.00;;
55254;SDS011;41118;44.634;11.182;2024-01-07T06:47:16;0.38;;;0.00;;
55254;SDS011;41118;44.634;11.182;2024-01-07T06:49:42;0.00;;;0.00;;
55254;SDS011;41118;44.634;11.182;2024-01-07T06:52:08;0.10;;;0.00;;
55254;SDS011;41118;44.634;11.182;2024-01-07T06:54:35;0.10;;;0.00;;
55254;SDS011;41118;44.634;11.182;2024-01-07T06:57:01;0.85;;;0.00;;
55254;SDS011;41118;44.634;11.182;2024-01-07T06:59:28;0.10;;;0.00;;
55254;SDS011;41118;44.634;11.182;2024-01-07T07:01:54;0.20;;;0.00;;
55254;SDS011;41118;44.634;11.182;2024-01-07T07:04:21;0.10;;;0.00;;
55254;SDS011;41118;44.634;11.182;2024-01-07T07:06:48;0.00;;;0.00;;
55254;SDS011;41118;44.634;11.182;2024-01-07T07:09:14;0.20;;;0.00;;
55254;SDS011;41118;44.634;11.182;2024-01-07T07:11:40;0.10;;;0.00;;
55254;SDS011;41118;44.634;11.182;2024-01-07T07:14:07;1.30;;;0.00;;
55254;SDS011;41118;44.634;11.182;2024-01-07T07:16:34;0.08;;;0.00;;
55254;SDS011;41118;44.634;11.182;2024-01-07T07:19:00;0.00;;;0.00;;
55254;SDS011;41118;44.634;11.182;2024-01-07T07:21:26;0.20;;;0.00;;
55254;SDS011;41118;44.634;11.182;2024-01-07T07:23:52;0.10;;;0.00;;
55254;SDS011;41118;44.634;11.182;2024-01-07T07:26:19;0.00;;;0.00;;
55254;SDS011;41118;44.634;11.182;2024-01-07T07:28:45;0.20;;;0.00;;
55254;SDS011;41118;44.634;11.182;2024-01-07T07:31:11;0.05;;;0.00;;
55254;SDS011;41118;44.634;11.182;2024-01-07T07:33:40;0.10;;;0.00;;
55254;SDS011;41118;44.634;11.182;2024-01-07T07:36:07;0.20;;;0.00;;
55254;SDS011;41118;44.634;11.182;2024-01-07T07:38:33;2.95;;;0.15;;
55254;SDS011;41118;44.634;11.182;2024-01-07T07:40:59;0.20;;;0.00;;
55254;SDS011;41118;44.634;11.182;2024-01-07T07:43:27;0.17;;;0.00;;
55254;SDS011;41118;44.634;11.182;2024-01-07T07:45:54;1.55;;;0.00;;
55254;SDS011;41118;44.634;11.182;2024-01-07T07:48:21;0.10;;;0.00;;
55254;SDS011;41118;44.634;11.182;2024-01-07T07:50:47;0.08;;;0.00;;
55254;SDS011;41118;44.634;11.182;2024-01-07T07:53:14;0.00;;;0.00;;
55254;SDS011;41118;44.634;11.182;2024-01-07T07:55:41;0.20;;;0.00;;
55254;SDS011;41118;44.634;11.182;2024-01-07T07:58:07;0.10;;;0.00;;
55254;SDS011;41118;44.634;11.182;2024-01-07T08:00:33;0.03;;;0.00;;
55254;SDS011;41118;44.634;11.182;2024-01-07T08:02:59;0.00;;;0.00;;
55254;SDS011;41118;44.634;11.182;2024-01-07T08:05:25;0.17;;;0.00;;
55254;SDS011;41118;44.634;11.182;2024-01-07T08:07:51;6.32;;;0.20;;
55254;SDS011;41118;44.634;11.182;2024-01-07T08:10:18;0.25;;;0.00;;
55254;SDS011;41118;44.634;11.182;2024-01-07T08:12:46;0.10;;;0.00;;
55254;SDS011;41118;44.634;11.182;2024-01-07T08:15:12;0.10;;;0.00;;
55254;SDS011;41118;44.634;11.182;2024-01-07T08:17:39;0.28;;;0.00;;
55254;SDS011;41118;44.634;11.182;2024-01-07T08:20:05;0.10;;;0.00;;
55254;SDS011;41118;44.634;11.182;2024-01-07T08:22:31;1.25;;;0.00;;
55254;SDS011;41118;44.634;11.182;2024-01-07T08:24:57;0.20;;;0.00;;
55254;SDS011;41118;44.634;11.182;2024-01-07T08:27:24;0.20;;;0.00;;
55254;SDS011;41118;44.634;11.182;2024-01-07T08:29:50;0.10;;;0.00;;
55254;SDS011;41118;44.634;11.182;2024-01-07T08:32:16;0.35;;;0.00;;
55254;SDS011;41118;44.634;11.182;2024-01-07T08:34:42;1.08;;;0.10;;
55254;SDS011;41118;44.634;11.182;2024-01-07T08:37:09;2.63;;;0.00;;
55254;SDS011;41118;44.634;11.182;2024-01-07T08:39:35;0.88;;;0.10;;
55254;SDS011;41118;44.634;11.182;2024-01-07T08:42:01;0.20;;;0.00;;
55254;SDS011;41118;44.634;11.182;2024-01-07T08:44:28;3.03;;;0.00;;
55254;SDS011;41118;44.634;11.182;2024-01-07T08:46:54;0.10;;;0.00;;
55254;SDS011;41118;44.634;11.182;2024-01-07T08:49:21;0.90;;;0.00;;
55254;SDS011;41118;44.634;11.182;2024-01-07T08:51:47;2.05;;;0.00;;
55254;SDS011;41118;44.634;11.182;2024-01-07T08:54:13;0.30;;;0.00;;
55254;SDS011;41118;44.634;11.182;2024-01-07T08:56:39;0.60;;;0.10;;
55254;SDS011;41118;44.634;11.182;2024-01-07T08:59:05;0.70;;;0.10;;
55254;SDS011;41118;44.634;11.182;2024-01-07T09:01:31;0.38;;;0.10;;
55254;SDS011;41118;44.634;11.182;2024-01-07T09:03:57;0.88;;;0.20;;
55254;SDS011;41118;44.634;11.182;2024-01-07T09:06:24;0.52;;;0.10;;
55254;SDS011;41118;44.634;11.182;2024-01-07T09:08:51;0.85;;;0.20;;
55254;SDS011;41118;44.634;11.182;2024-01-07T09:11:20;1.70;;;0.10;;
55254;SDS011;41118;44.634;11.182;2024-01-07T09:13:46;0.88;;;0.10;;
55254;SDS011;41118;44.634;11.182;2024-01-07T09:16:15;0.70;;;0.10;;
55254;SDS011;41118;44.634;11.182;2024-01-07T09:18:41;2.25;;;0.20;;
55254;SDS011;41118;44.634;11.182;2024-01-07T09:21:09;1.17;;;0.20;;
55254;SDS011;41118;44.634;11.182;2024-01-07T09:23:35;1.17;;;0.20;;
55254;SDS011;41118;44.634;11.182;2024-01-07T09:26:01;0.90;;;0.10;;
55254;SDS011;41118;44.634;11.182;2024-01-07T09:28:27;1.33;;;0.20;;
55254;SDS011;41118;44.634;11.182;2024-01-07T09:30:53;0.88;;;0.10;;
55254;SDS011;41118;44.634;11.182;2024-01-07T09:33:19;1.23;;;0.20;;
55254;SDS011;41118;44.634;11.182;2024-01-07T09:35:48;0.63;;;0.10;;
55254;SDS011;41118;44.634;11.182;2024-01-07T09:38:14;0.60;;;0.10;;
55254;SDS011;41118;44.634;11.182;2024-01-07T09:40:40;1.00;;;0.20;;
55254;SDS011;41118;44.634;11.182;2024-01-07T09:43:06;0.35;;;0.10;;
55254;SDS011;41118;44.634;11.182;2024-01-07T09:45:33;0.50;;;0.10;;
55254;SDS011;41118;44.634;11.182;2024-01-07T09:48:02;0.73;;;0.10;;
55254;SDS011;41118;44.634;11.182;2024-01-07T09:50:28;0.95;;;0.20;;
55254;SDS011;41118;44.634;11.182;2024-01-07T09:52:56;3.65;;;0.17;;
55254;SDS011;41118;44.634;11.182;2024-01-07T09:55:27;1.23;;;0.10;;
55254;SDS011;41118;44.634;11.182;2024-01-07T09:57:57;0.38;;;0.10;;
55254;SDS011;41118;44.634;11.182;2024-01-07T10:00:24;0.68;;;0.10;;
55254;SDS011;41118;44.634;11.182;2024-01-07T10:02:50;1.77;;;0.10;;
55254;SDS011;41118;44.634;11.182;2024-01-07T10:05:16;0.57;;;0.10;;
55254;SDS011;41118;44.634;11.182;2024-01-07T10:07:42;0.75;;;0.17;;
55254;SDS011;41118;44.634;11.182;2024-01-07T10:10:15;0.40;;;0.10;;
55254;SDS011;41118;44.634;11.182;2024-01-07T10:12:43;1.38;;;0.10;;
55254;SDS011;41118;44.634;11.182;2024-01-07T10:15:10;1.15;;;0.10;;
55254;SDS011;41118;44.634;11.182;2024-01-07T10:17:36;0.63;;;0.10;;
55254;SDS011;41118;44.634;11.182;2024-01-07T10:20:04;1.23;;;0.10;;
55254;SDS011;41118;44.634;11.182;2024-01-07T10:22:30;0.60;;;0.10;;
55254;SDS011;41118;44.634;11.182;2024-01-07T10:24:57;0.70;;;0.10;;
55254;SDS011;41118;44.634;11.182;2024-01-07T10:27:23;0.73;;;0.10;;
55254;SDS011;41118;44.634;11.182;2024-01-07T10:29:50;1.25;;;0.20;;
55254;SDS011;41118;44.634;11.182;2024-01-07T10:32:17;0.82;;;0.20;;
55254;SDS011;41118;44.634;11.182;2024-01-07T10:34:45;0.65;;;0.10;;
55254;SDS011;41118;44.634;11.182;2024-01-07T10:37:12;0.90;;;0.10;;
55254;SDS011;41118;44.634;11.182;2024-01-07T10:39:38;0.60;;;0.10;;
55254;SDS011;41118;44.634;11.182;2024-01-07T10:42:05;0.60;;;0.10;;
55254;SDS011;41118;44.634;11.182;2024-01-07T10:44:32;0.88;;;0.20;;
55254;SDS011;41118;44.634;11.182;2024-01-07T10:46:58;1.33;;;0.20;;
55254;SDS011;41118;44.634;11.182;2024-01-07T10:49:25;1.05;;;0.32;;
55254;SDS011;41118;44.634;11.182;2024-01-07T10:51:56;0.90;;;0.20;;
55254;SDS011;41118;44.634;11.182;2024-01-07T10:54:28;0.98;;;0.17;;
55254;SDS011;41118;44.634;11.182;2024-01-07T10:56:54;2.33;;;0.15;;
55254;SDS011;41118;44.634;11.182;2024-01-07T10:59:23;1.50;;;0.10;;
55254;SDS011;41118;44.634;11.182;2024-01-07T11:01:49;1.02;;;0.20;;
55254;SDS011;41118;44.634;11.182;2024-01-07T11:09:36;1.10;;;0.20;;
55254;SDS011;41118;44.634;11.182;2024-01-07T11:12:03;1.15;;;0.30;;
55254;SDS011;41118;44.634;11.182;2024-01-07T11:14:34;1.38;;;0.45;;
55254;SDS011;41118;44.634;11.182;2024-01-07T11:17:01;1.13;;;0.20;;
55254;SDS011;41118;44.634;11.182;2024-01-07T11:19:28;1.20;;;0.30;;
55254;SDS011;41118;44.634;11.182;2024-01-07T11:22:20;1.33;;;0.30;;
55254;SDS011;41118;44.634;11.182;2024-01-07T11:24:40;0.80;;;0.20;;
55254;SDS011;41118;44.634;11.182;2024-01-07T11:27:10;0.75;;;0.10;;
55254;SDS011;41118;44.634;11.182;2024-01-07T11:29:36;3.10;;;0.20;;
55254;SDS011;41118;44.634;11.182;2024-01-07T11:32:02;0.77;;;0.20;;
55254;SDS011;41118;44.634;11.182;2024-01-07T11:34:43;2.53;;;0.20;;
55254;SDS011;41118;44.634;11.182;2024-01-07T11:37:12;0.70;;;0.17;;
55254;SDS011;41118;44.634;11.182;2024-01-07T11:39:41;0.73;;;0.10;;
55254;SDS011;41118;44.634;11.182;2024-01-07T11:42:08;1.90;;;0.30;;
55254;SDS011;41118;44.634;11.182;2024-01-07T11:44:35;1.30;;;0.20;;
55254;SDS011;41118;44.634;11.182;2024-01-07T11:47:02;1.95;;;0.35;;
55254;SDS011;41118;44.634;11.182;2024-01-07T11:49:29;1.08;;;0.28;;
55254;SDS011;41118;44.634;11.182;2024-01-07T11:51:55;1.85;;;0.30;;
55254;SDS011;41118;44.634;11.182;2024-01-07T11:54:21;1.58;;;0.40;;
55254;SDS011;41118;44.634;11.182;2024-01-07T11:56:47;2.05;;;0.40;;
55254;SDS011;41118;44.634;11.182;2024-01-07T11:59:14;4.38;;;0.73;;
55254;SDS011;41118;44.634;11.182;2024-01-07T12:01:40;2.78;;;1.20;;
55254;SDS011;41118;44.634;11.182;2024-01-07T12:04:07;1.77;;;0.30;;
55254;SDS011;41118;44.634;11.182;2024-01-07T12:06:34;1.73;;;0.40;;
55254;SDS011;41118;44.634;11.182;2024-01-07T12:09:00;1.85;;;0.50;;
55254;SDS011;41118;44.634;11.182;2024-01-07T12:11:30;1.65;;;0.40;;
55254;SDS011;41118;44.634;11.182;2024-01-07T12:13:59;1.90;;;0.40;;
55254;SDS011;41118;44.634;11.182;2024-01-07T12:16:25;2.30;;;0.57;;
55254;SDS011;41118;44.634;11.182;2024-01-07T12:18:52;2.60;;;0.40;;
55254;SDS011;41118;44.634;11.182;2024-01-07T12:21:20;1.23;;;0.30;;
55254;SDS011;41118;44.634;11.182;2024-01-07T12:23:50;1.02;;;0.30;;
55254;SDS011;41118;44.634;11.182;2024-01-07T12:26:17;1.60;;;0.30;;
55254;SDS011;41118;44.634;11.182;2024-01-07T12:28:44;2.05;;;0.40;;
55254;SDS011;41118;44.634;11.182;2024-01-07T12:31:10;1.90;;;0.40;;
55254;SDS011;41118;44.634;11.182;2024-01-07T12:33:39;1.27;;;0.70;;
55254;SDS011;41118;44.634;11.182;2024-01-07T12:36:06;1.48;;;0.20;;
55254;SDS011;41118;44.634;11.182;2024-01-07T12:38:33;1.23;;;0.30;;
55254;SDS011;41118;44.634;11.182;2024-01-07T12:41:02;1.15;;;0.20;;
55254;SDS011;41118;44.634;11.182;2024-01-07T12:43:30;1.20;;;0.20;;
55254;SDS011;41118;44.634;11.182;2024-01-07T12:45:56;1.40;;;0.30;;
55254;SDS011;41118;44.634;11.182;2024-01-07T12:48:26;1.00;;;0.20;;
55254;SDS011;41118;44.634;11.182;2024-01-07T12:50:52;0.98;;;0.20;;
55254;SDS011;41118;44.634;11.182;2024-01-07T12:53:18;2.67;;;0.30;;
55254;SDS011;41118;44.634;11.182;2024-01-07T12:55:44;0.57;;;0.20;;
55254;SDS011;41118;44.634;11.182;2024-01-07T12:58:10;1.02;;;0.20;;
55254;SDS011;41118;44.634;11.182;2024-01-07T13:00:36;1.42;;;0.20;;
55254;SDS011;41118;44.634;11.182;2024-01-07T13:03:03;0.77;;;0.20;;
55254;SDS011;41118;44.634;11.182;2024-01-07T13:05:31;3.45;;;0.22;;
55254;SDS011;41118;44.634;11.182;2024-01-07T13:07:57;1.10;;;0.30;;
55254;SDS011;41118;44.634;11.182;2024-01-07T13:10:23;1.80;;;0.30;;
55254;SDS011;41118;44.634;11.182;2024-01-07T13:12:50;3.30;;;0.40;;
55254;SDS011;41118;44.634;11.182;2024-01-07T13:15:16;2.60;;;0.40;;
55254;SDS011;41118;44.634;11.182;2024-01-07T13:17:42;8.70;;;0.30;;
55254;SDS011;41118;44.634;11.182;2024-01-07T13:20:08;2.70;;;0.40;;
55254;SDS011;41118;44.634;11.182;2024-01-07T13:22:37;1.90;;;0.20;;
55254;SDS011;41118;44.634;11.182;2024-01-07T13:25:04;2.60;;;0.30;;
55254;SDS011;41118;44.634;11.182;2024-01-07T13:27:30;1.00;;;0.20;;
55254;SDS011;41118;44.634;11.182;2024-01-07T13:29:56;1.40;;;0.20;;
55254;SDS011;41118;44.634;11.182;2024-01-07T13:32:22;2.22;;;0.20;;
55254;SDS011;41118;44.634;11.182;2024-01-07T13:34:48;0.98;;;0.20;;
55254;SDS011;41118;44.634;11.182;2024-01-07T13:37:16;3.05;;;1.10;;
55254;SDS011;41118;44.634;11.182;2024-01-07T13:39:45;1.40;;;0.30;;
55254;SDS011;41118;44.634;11.182;2024-01-07T13:42:17;2.88;;;0.50;;
55254;SDS011;41118;44.634;11.182;2024-01-07T13:44:43;1.63;;;0.30;;
55254;SDS011;41118;44.634;11.182;2024-01-07T13:47:12;1.17;;;0.25;;
55254;SDS011;41118;44.634;11.182;2024-01-07T13:49:42;4.82;;;0.20;;
55254;SDS011;41118;44.634;11.182;2024-01-07T13:52:11;1.10;;;0.25;;
55254;SDS011;41118;44.634;11.182;2024-01-07T13:54:40;1.42;;;0.20;;
55254;SDS011;41118;44.634;11.182;2024-01-07T13:57:06;0.82;;;0.20;;
55254;SDS011;41118;44.634;11.182;2024-01-07T13:59:32;3.05;;;1.88;;
55254;SDS011;41118;44.634;11.182;2024-01-07T14:01:59;2.63;;;0.20;;
55254;SDS011;41118;44.634;11.182;2024-01-07T14:04:25;1.40;;;0.30;;
55254;SDS011;41118;44.634;11.182;2024-01-07T14:06:55;2.20;;;0.30;;
55254;SDS011;41118;44.634;11.182;2024-01-07T14:09:21;2.47;;;0.30;;
55254;SDS011;41118;44.634;11.182;2024-01-07T14:11:47;1.20;;;0.30;;
55254;SDS011;41118;44.634;11.182;2024-01-07T14:14:13;1.77;;;0.50;;
55254;SDS011;41118;44.634;11.182;2024-01-07T14:16:39;1.45;;;0.32;;
55254;SDS011;41118;44.634;11.182;2024-01-07T14:19:06;2.97;;;0.20;;
55254;SDS011;41118;44.634;11.182;2024-01-07T14:21:32;1.13;;;0.20;;
55254;SDS011;41118;44.634;11.182;2024-01-07T14:23:58;2.30;;;0.20;;
55254;SDS011;41118;44.634;11.182;2024-01-07T14:26:24;1.77;;;0.20;;
55254;SDS011;41118;44.634;11.182;2024-01-07T14:28:50;1.02;;;0.32;;
55254;SDS011;41118;44.634;11.182;2024-01-07T14:31:17;0.80;;;0.13;;
55254;SDS011;41118;44.634;11.182;2024-01-07T14:33:43;2.22;;;0.30;;
55254;SDS011;41118;44.634;11.182;2024-01-07T14:36:09;1.15;;;0.28;;